Time;durP1;ratioP1;P1;durP2;ratioP2;P2;SDS_P1;SDS_P2;PMS_P1;PMS_P2;Temp;Humidity;BMP_temperature;BMP_pressure;BME280_temperature;BME280_humidity;BME280_pressure;Samples;Min_cycle;Max_cycle;Signal;HPM_P1;HPM_P2
2023/07/21 00:01:05;;;;;;;;;;;27.60;55.80;;;;;;4990310;28;90540;-47
2023/07/21 00:03:32;;;;;;;;;;;27.60;55.80;;;;;;4995857;28;87573;-54
2023/07/21 00:05:59;;;;;;;;;;;27.60;55.90;;;;;;4992298;28;89677;-51
2023/07/21 00:08:29;;;;;;;;;;;27.60;55.80;;;;;;4991896;28;87174;-51
2023/07/21 00:10:57;;;;;;;;;;;27.60;55.90;;;;;;4994006;28;88977;-50
2023/07/21 00:13:23;;;;;;;;;;;27.60;55.80;;;;;;4986430;28;89542;-48
2023/07/21 00:15:49;;;;;;;;;;;27.50;55.70;;;;;;4993343;28;87162;-51
2023/07/21 00:18:15;;;;;;;;;;;27.50;55.90;;;;;;4991915;28;88158;-49
2023/07/21 00:20:41;;;;;;;;;;;27.50;55.90;;;;;;4991998;28;89201;-50
2023/07/21 00:23:06;;;;;;;;;;;27.50;55.90;;;;;;4992392;28;87898;-51
2023/07/21 00:25:32;;;;;;;;;;;27.50;55.90;;;;;;4994201;28;88140;-53
2023/07/21 00:27:57;;;;;;;;;;;27.50;56.00;;;;;;4992647;28;87205;-54
2023/07/21 00:30:23;;;;;;;;;;;27.50;55.90;;;;;;4990672;28;87048;-47
2023/07/21 00:32:49;;;;;;;;;;;27.40;56.50;;;;;;4992701;28;89485;-53
2023/07/21 00:35:14;;;;;;;;;;;27.40;55.90;;;;;;4990713;28;87119;-50
2023/07/21 00:37:40;;;;;;;;;;;27.40;55.90;;;;;;4993905;28;87452;-51
2023/07/21 00:40:09;;;;;;;;;;;27.40;55.80;;;;;;4989771;28;88703;-54
2023/07/21 00:42:35;;;;;;;;;;;27.40;55.90;;;;;;4993744;28;86272;-51
2023/07/21 00:45:02;;;;;;;;;;;27.30;55.90;;;;;;4990665;28;87073;-52
2023/07/21 00:47:28;;;;;;;;;;;27.30;55.90;;;;;;4992381;28;90252;-52
2023/07/21 00:49:54;;;;;;;;;;;27.30;55.90;;;;;;4991589;28;88049;-52
2023/07/21 00:52:20;;;;;;;;;;;27.30;55.90;;;;;;4991487;28;88017;-54
2023/07/21 00:54:45;;;;;;;;;;;27.30;55.90;;;;;;4992830;28;87847;-53
2023/07/21 00:57:11;;;;;;;;;;;27.30;55.90;;;;;;4991058;28;87434;-50
2023/07/21 00:59:37;;;;;;;;;;;27.30;55.90;;;;;;4992198;28;87915;-52
2023/07/21 01:02:03;;;;;;;;;;;27.30;55.90;;;;;;4989446;28;87028;-52
2023/07/21 01:04:30;;;;;;;;;;;27.30;56.00;;;;;;4997110;28;88715;-48
2023/07/21 01:06:56;;;;;;;;;;;27.30;55.90;;;;;;4994119;28;88704;-46
2023/07/21 01:09:22;;;;;;;;;;;27.20;55.90;;;;;;4999157;28;87075;-52
2023/07/21 01:11:48;;;;;;;;;;;27.20;55.90;;;;;;4994176;28;88068;-51
2023/07/21 01:14:13;;;;;;;;;;;27.20;55.90;;;;;;4994350;28;88013;-52
2023/07/21 01:16:43;;;;;;;;;;;27.20;56.00;;;;;;4992404;28;88447;-51
2023/07/21 01:19:12;;;;;;;;;;;27.10;56.00;;;;;;4993936;28;89253;-51
2023/07/21 01:21:40;;;;;;;;;;;27.20;56.00;;;;;;4996258;28;87476;-51
2023/07/21 01:24:15;;;;;;;;;;;27.10;55.90;;;;;;4989013;28;88907;-51
2023/07/21 01:26:41;;;;;;;;;;;27.10;56.00;;;;;;4994829;28;89286;-50
2023/07/21 01:29:08;;;;;;;;;;;27.10;55.90;;;;;;4994549;28;87132;-51
2023/07/21 01:31:35;;;;;;;;;;;27.10;56.00;;;;;;4996217;28;87369;-49
2023/07/21 01:34:01;;;;;;;;;;;27.10;56.00;;;;;;4993386;28;87157;-52
2023/07/21 01:36:27;;;;;;;;;;;27.00;55.90;;;;;;4996304;28;87104;-51
2023/07/21 01:38:53;;;;;;;;;;;27.00;56.00;;;;;;4991876;28;89052;-53
2023/07/21 01:41:20;;;;;;;;;;;27.00;56.10;;;;;;4992365;28;87078;-52
2023/07/21 01:43:46;;;;;;;;;;;27.00;56.00;;;;;;4995444;28;87394;-50
2023/07/21 01:46:12;;;;;;;;;;;27.00;55.90;;;;;;4994757;28;89927;-50
2023/07/21 01:48:37;;;;;;;;;;;27.00;55.90;;;;;;4993844;28;87154;-51
2023/07/21 01:51:05;;;;;;;;;;;27.00;55.90;;;;;;4997329;28;87450;-49
2023/07/21 01:53:33;;;;;;;;;;;27.00;56.00;;;;;;4994645;28;87003;-53
2023/07/21 01:55:58;;;;;;;;;;;27.00;55.90;;;;;;4993999;28;86535;-50
2023/07/21 01:58:24;;;;;;;;;;;26.90;55.90;;;;;;4995799;28;87979;-48
2023/07/21 02:00:50;;;;;;;;;;;26.90;55.90;;;;;;4992336;28;87186;-46
2023/07/21 02:03:15;;;;;;;;;;;26.90;56.00;;;;;;4997018;28;87945;-53
2023/07/21 02:05:41;;;;;;;;;;;26.90;56.00;;;;;;4992516;28;87742;-51
2023/07/21 02:08:09;;;;;;;;;;;26.90;56.00;;;;;;4995727;28;87440;-51
2023/07/21 02:10:36;;;;;;;;;;;26.90;56.00;;;;;;4992479;28;89425;-51
2023/07/21 02:13:01;;;;;;;;;;;26.90;56.00;;;;;;4996806;28;89095;-50
2023/07/21 02:15:27;;;;;;;;;;;26.90;56.00;;;;;;4992152;28;87468;-48
2023/07/21 02:17:53;;;;;;;;;;;26.90;56.00;;;;;;4990736;28;89366;-48
2023/07/21 02:20:18;;;;;;;;;;;26.80;55.90;;;;;;4994942;28;86391;-50
2023/07/21 02:22:44;;;;;;;;;;;26.80;55.90;;;;;;4993285;28;86980;-45
2023/07/21 02:25:09;;;;;;;;;;;26.80;56.00;;;;;;4995022;28;89381;-51
2023/07/21 02:27:35;;;;;;;;;;;26.80;55.90;;;;;;4990587;28;88074;-51
2023/07/21 02:30:01;;;;;;;;;;;26.80;55.90;;;;;;4994660;28;88499;-48
2023/07/21 02:32:28;;;;;;;;;;;26.70;55.90;;;;;;4990730;28;88047;-52
2023/07/21 02:34:54;;;;;;;;;;;26.80;55.90;;;;;;4997802;28;87001;-52
2023/07/21 02:37:19;;;;;;;;;;;26.70;55.90;;;;;;4992803;28;88070;-51
2023/07/21 02:39:45;;;;;;;;;;;26.70;55.90;;;;;;4994923;28;88109;-48
2023/07/21 02:42:10;;;;;;;;;;;26.70;56.00;;;;;;4993536;28;88420;-49
2023/07/21 02:44:36;;;;;;;;;;;26.70;55.90;;;;;;4993587;28;87326;-51
2023/07/21 02:47:01;;;;;;;;;;;26.60;56.00;;;;;;4992004;28;87196;-52
2023/07/21 02:49:27;;;;;;;;;;;26.70;55.90;;;;;;4987949;28;87509;-51
2023/07/21 02:51:52;;;;;;;;;;;26.60;56.00;;;;;;4993555;28;88953;-52
2023/07/21 02:54:18;;;;;;;;;;;26.60;56.00;;;;;;4992538;28;87132;-48
2023/07/21 02:56:44;;;;;;;;;;;26.60;56.00;;;;;;4997940;28;87440;-52
2023/07/21 02:59:10;;;;;;;;;;;26.60;56.00;;;;;;4991465;28;87187;-52
2023/07/21 03:01:36;;;;;;;;;;;26.60;56.00;;;;;;4991492;28;89288;-50
2023/07/21 03:04:03;;;;;;;;;;;26.50;55.90;;;;;;4990846;28;88182;-50
2023/07/21 03:06:30;;;;;;;;;;;26.60;56.00;;;;;;4994063;28;87061;-45
2023/07/21 03:08:56;;;;;;;;;;;26.50;56.00;;;;;;4993604;28;88724;-49
2023/07/21 03:11:21;;;;;;;;;;;26.50;56.00;;;;;;4993186;28;88158;-50
2023/07/21 03:13:47;;;;;;;;;;;26.50;56.00;;;;;;4994093;28;87839;-49
2023/07/21 03:16:13;;;;;;;;;;;26.50;56.10;;;;;;4990522;28;88598;-54
2023/07/21 03:18:39;;;;;;;;;;;26.40;56.00;;;;;;4993873;28;89284;-53
2023/07/21 03:21:04;;;;;;;;;;;26.40;56.00;;;;;;4985993;28;87330;-51
2023/07/21 03:23:30;;;;;;;;;;;26.40;56.00;;;;;;4990105;28;88906;-54
2023/07/21 03:25:55;;;;;;;;;;;26.40;56.00;;;;;;4987443;28;87236;-48
2023/07/21 03:28:25;;;;;;;;;;;26.50;56.00;;;;;;4991708;28;87389;-49
2023/07/21 03:31:00;;;;;;;;;;;26.40;55.90;;;;;;4988745;28;88010;-50
2023/07/21 03:33:26;;;;;;;;;;;26.40;56.00;;;;;;4983430;28;86403;-52
2023/07/21 03:36:01;;;;;;;;;;;26.40;55.90;;;;;;4992504;28;88136;-50
2023/07/21 03:38:27;;;;;;;;;;;26.40;56.00;;;;;;4988696;28;88125;-49
2023/07/21 03:41:06;;;;;;;;;;;26.30;55.90;;;;;;4987417;28;88130;-51
2023/07/21 03:43:32;;;;;;;;;;;26.30;56.00;;;;;;4980457;28;89045;-53
2023/07/21 03:45:58;;;;;;;;;;;26.30;56.00;;;;;;4990727;28;87127;-50
2023/07/21 03:48:24;;;;;;;;;;;26.30;56.00;;;;;;4985955;28;88822;-46
2023/07/21 03:50:50;;;;;;;;;;;26.30;56.00;;;;;;4985620;28;88193;-51
2023/07/21 03:53:16;;;;;;;;;;;26.30;55.90;;;;;;4985385;28;88915;-53
2023/07/21 03:55:43;;;;;;;;;;;26.30;56.00;;;;;;4993651;28;87572;-48
2023/07/21 03:58:08;;;;;;;;;;;26.30;56.00;;;;;;4990023;28;88375;-50
2023/07/21 04:00:37;;;;;;;;;;;26.30;56.10;;;;;;4988522;28;87522;-48
2023/07/21 04:03:02;;;;;;;;;;;26.30;56.10;;;;;;4982417;28;89231;-52
2023/07/21 04:05:28;;;;;;;;;;;26.20;56.00;;;;;;4993182;28;87993;-53
2023/07/21 04:07:54;;;;;;;;;;;26.20;56.00;;;;;;4989850;28;88194;-53
2023/07/21 04:10:19;;;;;;;;;;;26.20;56.00;;;;;;4983217;28;89557;-49
2023/07/21 04:12:45;;;;;;;;;;;26.20;56.00;;;;;;4982513;28;87047;-52
2023/07/21 04:15:10;;;;;;;;;;;26.20;56.00;;;;;;4989344;28;87466;-47
2023/07/21 04:17:36;;;;;;;;;;;26.10;56.00;;;;;;4988861;28;88198;-49
2023/07/21 04:20:01;;;;;;;;;;;26.10;56.70;;;;;;4985703;28;87125;-52
2023/07/21 04:22:28;;;;;;;;;;;26.10;56.00;;;;;;4990021;28;88959;-54
2023/07/21 04:24:53;;;;;;;;;;;26.10;56.00;;;;;;4991706;28;87180;-48
2023/07/21 04:27:19;;;;;;;;;;;26.10;56.00;;;;;;4990375;28;87408;-49
2023/07/21 04:29:44;;;;;;;;;;;26.10;56.00;;;;;;4980677;28;88110;-53
2023/07/21 04:32:10;;;;;;;;;;;26.00;56.00;;;;;;4984532;28;87180;-46
2023/07/21 04:34:35;;;;;;;;;;;26.10;56.00;;;;;;4992549;28;87441;-48
2023/07/21 04:37:02;;;;;;;;;;;26.10;56.10;;;;;;4983886;28;88014;-52
2023/07/21 04:39:27;;;;;;;;;;;26.00;56.00;;;;;;4978262;28;87147;-49
2023/07/21 04:41:53;;;;;;;;;;;26.00;56.00;;;;;;4990991;28;87295;-53
2023/07/21 04:44:19;;;;;;;;;;;26.00;56.10;;;;;;4988724;28;88481;-49
2023/07/21 04:46:46;;;;;;;;;;;26.00;56.10;;;;;;4981161;28;88829;-46
2023/07/21 04:49:13;;;;;;;;;;;26.00;56.00;;;;;;4983929;28;89393;-50
2023/07/21 04:51:38;;;;;;;;;;;26.00;56.00;;;;;;4991133;28;87329;-51
2023/07/21 04:54:04;;;;;;;;;;;26.00;56.00;;;;;;4992206;28;88021;-48
2023/07/21 04:56:29;;;;;;;;;;;26.00;56.10;;;;;;4979397;28;91251;-51
2023/07/21 04:58:55;;;;;;;;;;;26.00;56.10;;;;;;4986959;28;87875;-49
2023/07/21 05:01:20;;;;;;;;;;;26.00;56.10;;;;;;4990829;28;87545;-49
2023/07/21 05:03:46;;;;;;;;;;;26.00;56.10;;;;;;4989137;28;88181;-50
2023/07/21 05:06:11;;;;;;;;;;;25.90;56.10;;;;;;4987620;28;87273;-49
2023/07/21 05:08:37;;;;;;;;;;;25.90;56.20;;;;;;4985960;28;88088;-52
2023/07/21 05:11:02;;;;;;;;;;;25.90;56.10;;;;;;4990269;28;86416;-51
2023/07/21 05:13:28;;;;;;;;;;;25.90;56.10;;;;;;4988093;28;87151;-52
2023/07/21 05:15:54;;;;;;;;;;;25.90;56.20;;;;;;4981691;28;87293;-46
2023/07/21 05:18:20;;;;;;;;;;;25.90;56.20;;;;;;4984162;28;88616;-48
2023/07/21 05:20:45;;;;;;;;;;;25.90;56.20;;;;;;4990493;28;87466;-50
2023/07/21 05:23:11;;;;;;;;;;;25.90;56.30;;;;;;4988535;28;88159;-48
2023/07/21 05:25:37;;;;;;;;;;;25.90;56.20;;;;;;4978250;28;87090;-49
2023/07/21 05:28:02;;;;;;;;;;;25.90;56.20;;;;;;4991235;28;87103;-53
2023/07/21 05:30:28;;;;;;;;;;;25.90;56.30;;;;;;4991946;28;87133;-50
2023/07/21 05:32:56;;;;;;;;;;;25.90;56.30;;;;;;4981855;28;87518;-51
2023/07/21 05:35:22;;;;;;;;;;;25.90;56.30;;;;;;4985454;28;88828;-49
2023/07/21 05:37:47;;;;;;;;;;;25.90;56.40;;;;;;4985908;28;87144;-48
2023/07/21 05:40:13;;;;;;;;;;;25.90;56.40;;;;;;4985418;28;87430;-53
2023/07/21 05:42:38;;;;;;;;;;;25.90;56.40;;;;;;4987162;28;90566;-52
2023/07/21 05:45:05;;;;;;;;;;;25.90;56.40;;;;;;4987054;28;87213;-49
2023/07/21 05:47:30;;;;;;;;;;;25.90;56.40;;;;;;4989613;28;87432;-49
2023/07/21 05:50:01;;;;;;;;;;;25.90;56.50;;;;;;4997228;28;88276;-54
2023/07/21 05:52:27;;;;;;;;;;;25.90;56.60;;;;;;4994264;28;87180;-49
2023/07/21 05:54:52;;;;;;;;;;;25.90;56.60;;;;;;4987822;28;89290;-55
2023/07/21 05:57:18;;;;;;;;;;;25.90;56.60;;;;;;4989043;28;87258;-54
2023/07/21 05:59:45;;;;;;;;;;;25.90;56.60;;;;;;4993628;28;86670;-53
2023/07/21 06:02:11;;;;;;;;;;;25.90;56.60;;;;;;4986582;28;89521;-51
2023/07/21 06:04:36;;;;;;;;;;;25.90;56.70;;;;;;4987576;28;88239;-48
2023/07/21 06:07:02;;;;;;;;;;;25.90;56.70;;;;;;4990773;28;88146;-52
2023/07/21 06:09:28;;;;;;;;;;;25.90;56.70;;;;;;4997501;28;89366;-53
2023/07/21 06:11:54;;;;;;;;;;;25.90;56.70;;;;;;4984566;28;87621;-49
2023/07/21 06:14:20;;;;;;;;;;;25.90;56.90;;;;;;4982870;28;87152;-53
2023/07/21 06:16:45;;;;;;;;;;;25.90;56.90;;;;;;4984794;28;87607;-54
2023/07/21 06:19:11;;;;;;;;;;;25.90;56.90;;;;;;4993565;28;87415;-53
2023/07/21 06:21:36;;;;;;;;;;;25.90;56.80;;;;;;4990281;28;88026;-52
2023/07/21 06:24:02;;;;;;;;;;;25.90;56.80;;;;;;4987161;28;86440;-50
2023/07/21 06:26:28;;;;;;;;;;;25.90;56.80;;;;;;4990741;28;87138;-48
2023/07/21 06:28:53;;;;;;;;;;;25.90;56.90;;;;;;4992128;28;88040;-48
2023/07/21 06:31:19;;;;;;;;;;;25.90;56.80;;;;;;4988480;28;88163;-47
2023/07/21 06:33:44;;;;;;;;;;;25.90;57.60;;;;;;4985448;28;89382;-50
2023/07/21 06:36:10;;;;;;;;;;;25.90;57.00;;;;;;4990599;28;87666;-55
2023/07/21 06:38:35;;;;;;;;;;;25.90;56.90;;;;;;4992524;28;87285;-50
2023/07/21 06:41:04;;;;;;;;;;;25.90;57.00;;;;;;4983303;28;88289;-52
2023/07/21 06:43:30;;;;;;;;;;;25.90;57.00;;;;;;4982136;28;87336;-50
2023/07/21 06:45:55;;;;;;;;;;;25.90;57.00;;;;;;4993781;28;88126;-49
2023/07/21 06:48:21;;;;;;;;;;;25.90;57.10;;;;;;4993869;28;87472;-53
2023/07/21 06:50:47;;;;;;;;;;;25.90;57.10;;;;;;4986246;28;87196;-53
2023/07/21 06:53:12;;;;;;;;;;;25.90;57.10;;;;;;4991721;28;87421;-52
2023/07/21 06:55:39;;;;;;;;;;;25.90;57.00;;;;;;4989922;28;88243;-49
2023/07/21 06:58:04;;;;;;;;;;;25.90;57.00;;;;;;4991904;28;90003;-48
2023/07/21 07:00:30;;;;;;;;;;;25.90;57.10;;;;;;4980438;28;87683;-51
2023/07/21 07:02:56;;;;;;;;;;;25.90;57.10;;;;;;4987316;28;87086;-52
2023/07/21 07:05:21;;;;;;;;;;;25.90;57.10;;;;;;4990773;28;91324;-49
2023/07/21 07:07:52;;;;;;;;;;;25.90;57.10;;;;;;4992501;28;87999;-50
2023/07/21 07:10:18;;;;;;;;;;;25.90;57.20;;;;;;4991060;28;88933;-48
2023/07/21 07:12:43;;;;;;;;;;;25.90;57.10;;;;;;4985314;28;87447;-48
2023/07/21 07:15:09;;;;;;;;;;;25.90;57.10;;;;;;4994972;28;88146;-54
2023/07/21 07:17:36;;;;;;;;;;;25.90;57.10;;;;;;4988749;28;88776;-46
2023/07/21 07:20:01;;;;;;;;;;;25.90;57.20;;;;;;4981808;28;88860;-52
2023/07/21 07:22:28;;;;;;;;;;;25.90;57.20;;;;;;4991050;28;88586;-50
2023/07/21 07:24:54;;;;;;;;;;;25.90;57.20;;;;;;4991606;28;87407;-53
2023/07/21 07:27:19;;;;;;;;;;;25.90;57.20;;;;;;4988228;28;88430;-52
2023/07/21 07:29:45;;;;;;;;;;;25.90;57.20;;;;;;4984289;28;88137;-51
2023/07/21 07:32:11;;;;;;;;;;;25.90;57.30;;;;;;4987745;28;88860;-51
2023/07/21 07:34:36;;;;;;;;;;;25.90;57.20;;;;;;4992376;28;89134;-47
2023/07/21 07:37:02;;;;;;;;;;;26.00;57.30;;;;;;4988102;28;87446;-50
2023/07/21 07:39:27;;;;;;;;;;;25.90;57.30;;;;;;4992359;28;88632;-53
2023/07/21 07:41:53;;;;;;;;;;;25.90;57.30;;;;;;4991395;28;87157;-48
2023/07/21 07:44:18;;;;;;;;;;;25.90;57.20;;;;;;4993416;28;87966;-50
2023/07/21 07:46:45;;;;;;;;;;;25.90;57.30;;;;;;4985956;28;87614;-52
2023/07/21 07:49:10;;;;;;;;;;;25.90;57.30;;;;;;4983834;28;87288;-50
2023/07/21 07:51:38;;;;;;;;;;;26.00;57.40;;;;;;4987962;28;87493;-49
2023/07/21 07:54:07;;;;;;;;;;;25.90;57.30;;;;;;4987099;28;89292;-49
2023/07/21 07:56:33;;;;;;;;;;;25.90;57.40;;;;;;4988218;28;87926;-49
2023/07/21 07:58:59;;;;;;;;;;;25.90;57.40;;;;;;4988868;28;88058;-51
2023/07/21 08:01:24;;;;;;;;;;;25.90;57.40;;;;;;4987042;28;86782;-53
2023/07/21 08:03:52;;;;;;;;;;;25.90;57.40;;;;;;4992064;28;87095;-48
2023/07/21 08:06:17;;;;;;;;;;;26.00;57.50;;;;;;4988036;28;87924;-47
2023/07/21 08:08:43;;;;;;;;;;;25.90;57.40;;;;;;4987825;28;88081;-51
2023/07/21 08:11:08;;;;;;;;;;;25.90;57.40;;;;;;4990800;28;88334;-51
2023/07/21 08:13:34;;;;;;;;;;;25.90;57.50;;;;;;4991165;28;87583;-48
2023/07/21 08:16:00;;;;;;;;;;;26.00;57.60;;;;;;4983560;28;88933;-53
2023/07/21 08:18:26;;;;;;;;;;;26.00;57.50;;;;;;4983399;28;89089;-50
2023/07/21 08:20:51;;;;;;;;;;;26.00;57.40;;;;;;4990842;28;87094;-55
2023/07/21 08:23:17;;;;;;;;;;;26.00;57.50;;;;;;4991897;28;87335;-52
2023/07/21 08:25:42;;;;;;;;;;;26.00;57.50;;;;;;4992531;28;87845;-51
2023/07/21 08:28:08;;;;;;;;;;;26.00;57.40;;;;;;4983927;28;87616;-50
2023/07/21 08:30:34;;;;;;;;;;;26.00;57.50;;;;;;4992009;28;89405;-49
2023/07/21 08:32:59;;;;;;;;;;;26.00;57.40;;;;;;4990991;28;89393;-52
2023/07/21 08:35:27;;;;;;;;;;;26.00;57.40;;;;;;4985279;28;87063;-53
2023/07/21 08:37:53;;;;;;;;;;;26.00;57.40;;;;;;4982842;28;89093;-49
2023/07/21 08:40:19;;;;;;;;;;;26.00;57.40;;;;;;4996350;28;87808;-50
2023/07/21 08:42:44;;;;;;;;;;;26.00;57.40;;;;;;4989900;28;87423;-48
2023/07/21 08:45:11;;;;;;;;;;;26.00;57.50;;;;;;4981276;28;88153;-48
2023/07/21 08:47:37;;;;;;;;;;;26.10;57.40;;;;;;4984946;28;87497;-49
2023/07/21 08:50:06;;;;;;;;;;;26.00;57.40;;;;;;4993025;28;87874;-52
2023/07/21 08:52:31;;;;;;;;;;;26.00;57.30;;;;;;4990514;28;87176;-48
2023/07/21 08:54:57;;;;;;;;;;;26.10;57.40;;;;;;4987659;28;87638;-48
2023/07/21 08:57:22;;;;;;;;;;;26.10;57.50;;;;;;4984215;28;88066;-55
2023/07/21 08:59:49;;;;;;;;;;;26.10;57.40;;;;;;4990665;28;88089;-50
2023/07/21 09:02:15;;;;;;;;;;;26.00;57.40;;;;;;4991047;28;87105;-52
2023/07/21 09:04:43;;;;;;;;;;;26.10;57.40;;;;;;4980836;28;89002;-53
2023/07/21 09:07:08;;;;;;;;;;;26.10;57.40;;;;;;4982110;28;87112;-50
2023/07/21 09:09:34;;;;;;;;;;;26.10;57.40;;;;;;4993447;28;87318;-48
2023/07/21 09:12:11;;;;;;;;;;;26.10;57.40;;;;;;4988803;28;89172;-53
2023/07/21 09:14:41;;;;;;;;;;;26.10;57.40;;;;;;4985328;28;86489;-46
2023/07/21 09:17:07;;;;;;;;;;;26.10;57.40;;;;;;4984619;28;87144;-53
2023/07/21 09:19:36;;;;;;;;;;;26.10;57.40;;;;;;4992068;28;88063;-50
2023/07/21 09:22:02;;;;;;;;;;;26.20;57.50;;;;;;4987492;28;88020;-46
2023/07/21 09:24:27;;;;;;;;;;;26.10;57.40;;;;;;4986374;28;88490;-50
2023/07/21 09:27:12;;;;;;;;;;;26.10;57.40;;;;;;4992370;28;87455;-49
2023/07/21 09:29:37;;;;;;;;;;;26.20;57.50;;;;;;4990017;28;87325;-56
2023/07/21 09:32:10;;;;;;;;;;;26.20;57.50;;;;;;4986424;28;89312;-52
2023/07/21 09:34:51;;;;;;;;;;;26.20;57.50;;;;;;4988839;28;87427;-52
2023/07/21 09:37:17;;;;;;;;;;;26.20;57.50;;;;;;4989923;28;88101;-53
2023/07/21 09:39:43;;;;;;;;;;;26.30;57.60;;;;;;4993815;28;87132;-51
2023/07/21 09:42:10;;;;;;;;;;;26.30;57.60;;;;;;4995082;28;87178;-52
2023/07/21 09:44:36;;;;;;;;;;;26.30;57.50;;;;;;4994701;28;87520;-51
2023/07/21 09:47:03;;;;;;;;;;;26.30;57.50;;;;;;4996765;28;89068;-47
2023/07/21 09:49:28;;;;;;;;;;;26.30;57.50;;;;;;4994046;28;89181;-51
2023/07/21 09:51:55;;;;;;;;;;;26.30;57.50;;;;;;4993481;28;88595;-52
2023/07/21 09:54:22;;;;;;;;;;;26.30;57.50;;;;;;4995752;28;87149;-54
2023/07/21 09:56:49;;;;;;;;;;;26.30;57.50;;;;;;4987621;28;87464;-54
2023/07/21 09:59:15;;;;;;;;;;;26.30;57.50;;;;;;4991966;28;87803;-49
2023/07/21 10:01:41;;;;;;;;;;;26.30;57.50;;;;;;4995337;28;87441;-54
2023/07/21 10:04:08;;;;;;;;;;;26.30;57.50;;;;;;4993347;28;87664;-50
2023/07/21 10:06:35;;;;;;;;;;;26.40;57.50;;;;;;4994482;28;87956;-51
2023/07/21 10:09:01;;;;;;;;;;;26.40;57.50;;;;;;4997051;28;86878;-52
2023/07/21 10:11:27;;;;;;;;;;;26.40;57.50;;;;;;4991406;28;89992;-50
2023/07/21 10:13:52;;;;;;;;;;;26.40;57.40;;;;;;4993431;28;87414;-54
2023/07/21 10:16:20;;;;;;;;;;;26.40;57.50;;;;;;4995303;28;86963;-56
2023/07/21 10:18:58;;;;;;;;;;;26.50;57.50;;;;;;4991210;28;90492;-54
2023/07/21 10:21:29;;;;;;;;;;;26.50;57.50;;;;;;4991553;28;87638;-51
2023/07/21 10:23:54;;;;;;;;;;;26.50;57.50;;;;;;4993136;28;87395;-54
2023/07/21 10:26:20;;;;;;;;;;;26.50;57.50;;;;;;4991129;28;88053;-56
2023/07/21 10:28:46;;;;;;;;;;;26.50;57.50;;;;;;4998839;28;86667;-53
2023/07/21 10:31:20;;;;;;;;;;;26.50;57.40;;;;;;4990713;28;88226;-49
2023/07/21 10:34:05;;;;;;;;;;;26.50;57.40;;;;;;4988732;28;87145;-52
2023/07/21 10:36:45;;;;;;;;;;;26.60;57.50;;;;;;4987358;28;87942;-53
2023/07/21 10:39:11;;;;;;;;;;;26.60;57.50;;;;;;4992312;28;88121;-48
2023/07/21 10:41:38;;;;;;;;;;;26.60;57.40;;;;;;4990888;28;87321;-57
2023/07/21 10:44:08;;;;;;;;;;;26.60;57.40;;;;;;4994742;28;88739;-52
2023/07/21 10:46:37;;;;;;;;;;;26.60;57.40;;;;;;4987968;28;87517;-52
2023/07/21 10:49:03;;;;;;;;;;;26.70;57.40;;;;;;4992875;28;87114;-54
2023/07/21 10:51:29;;;;;;;;;;;26.60;57.40;;;;;;4995551;28;87385;-51
2023/07/21 10:53:54;;;;;;;;;;;26.70;57.40;;;;;;4994226;28;86720;-52
2023/07/21 10:56:21;;;;;;;;;;;26.70;57.40;;;;;;4992388;28;87159;-55
2023/07/21 10:58:46;;;;;;;;;;;26.70;57.40;;;;;;4992611;28;88038;-52
2023/07/21 11:01:16;;;;;;;;;;;26.70;57.40;;;;;;4991463;28;88336;-52
2023/07/21 11:03:43;;;;;;;;;;;26.80;57.50;;;;;;4990638;28;88806;-55
2023/07/21 11:06:09;;;;;;;;;;;26.80;57.40;;;;;;4994266;28;89235;-53
2023/07/21 11:08:36;;;;;;;;;;;26.80;57.30;;;;;;4991614;28;87146;-55
2023/07/21 11:11:01;;;;;;;;;;;26.80;57.30;;;;;;4993860;28;86988;-59
2023/07/21 11:13:27;;;;;;;;;;;26.80;57.40;;;;;;4993484;28;88369;-53
2023/07/21 11:15:53;;;;;;;;;;;26.80;57.30;;;;;;4992311;28;88958;-48
2023/07/21 11:18:19;;;;;;;;;;;26.90;57.40;;;;;;4992968;28;87230;-51
2023/07/21 11:20:48;;;;;;;;;;;26.90;57.40;;;;;;4989708;28;87315;-50
2023/07/21 11:23:14;;;;;;;;;;;26.90;57.30;;;;;;4994213;28;88821;-53
2023/07/21 11:25:39;;;;;;;;;;;26.90;57.30;;;;;;4990265;28;89078;-56
2023/07/21 11:28:06;;;;;;;;;;;26.90;57.30;;;;;;4990001;28;87237;-53
2023/07/21 11:30:31;;;;;;;;;;;26.90;57.30;;;;;;4993786;28;88836;-49
2023/07/21 11:33:09;;;;;;;;;;;27.00;57.40;;;;;;4991151;28;87326;-52
2023/07/21 11:35:35;;;;;;;;;;;27.00;57.30;;;;;;4993856;28;87159;-52
2023/07/21 11:38:00;;;;;;;;;;;27.00;57.30;;;;;;4992850;28;88005;-47
2023/07/21 11:40:26;;;;;;;;;;;27.00;57.20;;;;;;4991355;28;87242;-55
2023/07/21 11:42:54;;;;;;;;;;;27.00;57.20;;;;;;4993895;28;88815;-54
2023/07/21 11:45:35;;;;;;;;;;;27.10;57.30;;;;;;4987007;28;88081;-53
2023/07/21 11:48:03;;;;;;;;;;;27.10;57.20;;;;;;4991672;28;87244;-52
2023/07/21 11:50:29;;;;;;;;;;;27.10;57.20;;;;;;4992506;28;88832;-53
2023/07/21 11:52:57;;;;;;;;;;;27.20;57.20;;;;;;4990530;28;88034;-52
2023/07/21 11:55:23;;;;;;;;;;;27.20;57.30;;;;;;4987007;28;87041;-56
2023/07/21 11:57:49;;;;;;;;;;;27.10;57.10;;;;;;4992478;28;87330;-50
2023/07/21 12:00:14;;;;;;;;;;;27.10;57.20;;;;;;4992935;28;87076;-51
2023/07/21 12:02:41;;;;;;;;;;;27.20;57.30;;;;;;4991972;28;87386;-54
2023/07/21 12:05:07;;;;;;;;;;;27.20;57.20;;;;;;4991993;28;89258;-50
2023/07/21 12:07:32;;;;;;;;;;;27.20;57.20;;;;;;4992589;28;86356;-51
2023/07/21 12:10:00;;;;;;;;;;;27.20;57.20;;;;;;4992941;28;87032;-50
2023/07/21 12:12:26;;;;;;;;;;;27.30;57.20;;;;;;4990373;28;89437;-51
2023/07/21 12:14:51;;;;;;;;;;;27.30;57.20;;;;;;4985302;28;88216;-52
2023/07/21 12:17:17;;;;;;;;;;;27.30;57.10;;;;;;4996702;28;88353;-55
2023/07/21 12:19:42;;;;;;;;;;;27.30;57.10;;;;;;4986455;28;87151;-47
2023/07/21 12:22:08;;;;;;;;;;;27.30;57.20;;;;;;4990624;28;87620;-51
2023/07/21 12:24:33;;;;;;;;;;;27.40;57.20;;;;;;4992702;28;87384;-54
2023/07/21 12:26:59;;;;;;;;;;;27.40;57.10;;;;;;4990666;28;87107;-49
2023/07/21 12:29:25;;;;;;;;;;;27.40;57.10;;;;;;4992224;28;87442;-52
2023/07/21 12:31:50;;;;;;;;;;;27.40;57.10;;;;;;4992097;28;87574;-49
2023/07/21 12:34:16;;;;;;;;;;;27.40;57.10;;;;;;4992551;28;87640;-52
2023/07/21 12:36:41;;;;;;;;;;;27.40;57.20;;;;;;4992177;28;87886;-49
2023/07/21 12:39:10;;;;;;;;;;;27.40;57.20;;;;;;4993028;28;89093;-53
2023/07/21 12:41:36;;;;;;;;;;;27.50;57.20;;;;;;4992939;28;88377;-52
2023/07/21 12:44:02;;;;;;;;;;;27.50;57.10;;;;;;4989091;28;88070;-56
2023/07/21 12:46:27;;;;;;;;;;;27.60;57.10;;;;;;4993622;28;87056;-49
2023/07/21 12:48:53;;;;;;;;;;;27.60;57.10;;;;;;4990244;28;87234;-50
2023/07/21 12:51:18;;;;;;;;;;;27.60;57.10;;;;;;4990509;28;88045;-55
2023/07/21 12:53:44;;;;;;;;;;;27.60;57.10;;;;;;4989936;28;87265;-52
2023/07/21 12:56:09;;;;;;;;;;;27.60;57.10;;;;;;4992728;28;87499;-50
2023/07/21 12:58:35;;;;;;;;;;;27.60;57.10;;;;;;4990243;28;88269;-49
2023/07/21 13:01:00;;;;;;;;;;;27.70;57.10;;;;;;4994562;28;87221;-52
2023/07/21 13:03:26;;;;;;;;;;;27.70;57.10;;;;;;4990907;28;89138;-52
2023/07/21 13:05:51;;;;;;;;;;;27.70;57.10;;;;;;4990241;28;87625;-53
2023/07/21 13:08:17;;;;;;;;;;;27.70;57.30;;;;;;4991082;28;87228;-51
2023/07/21 13:10:42;;;;;;;;;;;27.80;57.10;;;;;;4991902;28;89203;-49
2023/07/21 13:13:08;;;;;;;;;;;27.80;57.00;;;;;;4989924;28;87197;-53
2023/07/21 13:15:33;;;;;;;;;;;27.80;57.00;;;;;;4990095;28;87457;-54
2023/07/21 13:17:59;;;;;;;;;;;27.80;56.80;;;;;;4992544;28;89041;-53
2023/07/21 13:20:25;;;;;;;;;;;27.90;56.90;;;;;;4989218;28;86484;-53
2023/07/21 13:22:50;;;;;;;;;;;27.90;56.80;;;;;;4992749;28;87433;-53
2023/07/21 13:25:16;;;;;;;;;;;27.90;56.70;;;;;;4992629;28;87103;-50
2023/07/21 13:27:41;;;;;;;;;;;28.00;56.80;;;;;;4989773;28;89005;-50
2023/07/21 13:30:07;;;;;;;;;;;28.00;56.80;;;;;;4989365;28;88168;-51
2023/07/21 13:32:33;;;;;;;;;;;28.00;56.80;;;;;;4991635;28;87117;-53
2023/07/21 13:34:58;;;;;;;;;;;28.00;56.80;;;;;;4988786;28;87732;-52
2023/07/21 13:37:24;;;;;;;;;;;28.10;56.80;;;;;;4991004;28;88203;-43
2023/07/21 13:39:50;;;;;;;;;;;28.10;56.80;;;;;;4990456;28;87419;-48
2023/07/21 13:42:15;;;;;;;;;;;28.30;44.50;;;;;;4989643;28;87271;-49
2023/07/21 13:44:41;;;;;;;;;;;28.40;39.70;;;;;;4991287;28;87646;-46
2023/07/21 13:47:06;;;;;;;;;;;28.50;38.30;;;;;;4989612;28;87312;-48
2023/07/21 13:49:32;;;;;;;;;;;28.70;38.20;;;;;;4992830;28;88499;-49
2023/07/21 13:51:58;;;;;;;;;;;28.60;39.40;;;;;;4988116;28;87921;-44
2023/07/21 13:54:24;;;;;;;;;;;28.60;41.60;;;;;;4992049;28;89813;-50
2023/07/21 13:56:50;;;;;;;;;;;28.70;43.30;;;;;;4989653;28;89217;-52
2023/07/21 13:59:15;;;;;;;;;;;28.60;44.10;;;;;;4990211;28;87270;-50
2023/07/21 14:01:41;;;;;;;;;;;28.50;45.60;;;;;;4991087;28;87075;-50
2023/07/21 14:04:07;;;;;;;;;;;28.50;45.30;;;;;;4990707;28;87953;-53
2023/07/21 14:06:32;;;;;;;;;;;28.60;45.60;;;;;;4994299;28;87117;-52
2023/07/21 14:08:58;;;;;;;;;;;28.70;46.60;;;;;;4993123;28;87354;-53
2023/07/21 14:11:23;;;;;;;;;;;28.70;46.70;;;;;;4995194;28;87426;-50